Time;durP1;ratioP1;P1;durP2;ratioP2;P2;SDS_P1;SDS_P2;PMS_P1;PMS_P2;Temp;Humidity;BMP_temperature;BMP_pressure;BME280_temperature;BME280_humidity;BME280_pressure;Samples;Min_cycle;Max_cycle;Signal;HPM_P1;HPM_P2
2023/05/21 00:01:28;;;;;;;5.30;3.42;;;;;;;13.35;72.38;101697.31;5045006;28;20049;-71
2023/05/21 00:04:14;;;;;;;4.88;3.00;;;;;;;13.38;72.66;101694.59;5040339;28;20042;-71
2023/05/21 00:07:00;;;;;;;6.20;3.47;;;;;;;13.43;73.00;101697.97;5048087;28;20120;-71
2023/05/21 00:09:45;;;;;;;5.65;3.25;;;;;;;13.46;73.12;101689.09;5043002;28;20277;-71
2023/05/21 00:12:31;;;;;;;6.88;3.42;;;;;;;13.49;72.95;101691.66;5049635;28;20510;-72
2023/05/21 00:15:16;;;;;;;5.63;3.45;;;;;;;13.48;73.00;101689.94;5044413;28;20061;-71
2023/05/21 00:18:02;;;;;;;4.75;3.53;;;;;;;13.48;72.58;101685.50;5049532;28;20046;-72
2023/05/21 00:20:47;;;;;;;8.35;3.45;;;;;;;13.48;72.86;101674.03;5042909;28;20042;-71
2023/05/21 00:23:33;;;;;;;5.45;3.92;;;;;;;13.51;72.82;101665.97;5044850;28;20041;-71
2023/05/21 00:26:20;;;;;;;5.03;3.70;;;;;;;13.56;73.12;101669.38;5040465;28;20045;-71
2023/05/21 00:29:07;;;;;;;5.60;3.60;;;;;;;13.59;73.26;101661.31;5041474;28;20037;-71
2023/05/21 00:31:52;;;;;;;6.10;3.97;;;;;;;13.64;73.36;101664.72;5046848;28;20057;-71
2023/05/21 00:34:38;;;;;;;4.25;3.53;;;;;;;13.66;73.70;101667.31;5042754;28;20508;-71
2023/05/21 00:37:23;;;;;;;4.68;3.72;;;;;;;13.65;73.29;101658.50;5047559;28;20053;-71
2023/05/21 00:40:10;;;;;;;5.60;3.97;;;;;;;13.70;73.25;101662.78;5058505;28;20054;-71
2023/05/21 00:42:56;;;;;;;5.45;3.90;;;;;;;13.73;73.23;101657.41;5046615;28;20049;-71
2023/05/21 00:45:46;;;;;;;5.25;3.72;;;;;;;13.76;73.42;101654.66;5044093;28;20049;-71
2023/05/21 00:48:31;;;;;;;5.18;3.70;;;;;;;13.78;73.30;101650.19;5048313;28;20525;-71
2023/05/21 00:51:20;;;;;;;4.88;3.80;;;;;;;13.79;73.25;101641.28;5049621;28;20057;-71
2023/05/21 00:54:07;;;;;;;6.15;4.13;;;;;;;13.82;73.46;101646.50;5042009;28;20481;-71
2023/05/21 00:56:53;;;;;;;4.70;3.65;;;;;;;13.84;73.19;101644.69;5032832;28;20611;-72
2023/05/21 00:59:38;;;;;;;4.50;3.63;;;;;;;13.84;73.16;101644.69;5038197;28;20050;-71
2023/05/21 01:02:24;;;;;;;7.25;3.65;;;;;;;13.85;73.37;101637.59;5047271;28;20041;-71
2023/05/21 01:05:10;;;;;;;4.85;3.88;;;;;;;13.85;73.33;101640.25;5033871;28;20148;-71
2023/05/21 01:07:57;;;;;;;4.93;3.97;;;;;;;13.80;73.09;101643.03;5045004;28;20834;-72
2023/05/21 01:10:43;;;;;;;5.72;3.88;;;;;;;13.78;73.44;101642.25;5035941;28;20048;-71
2023/05/21 01:13:30;;;;;;;6.00;4.07;;;;;;;13.73;73.61;101638.84;5029783;28;20052;-71
2023/05/21 01:16:16;;;;;;;5.65;4.25;;;;;;;13.65;73.52;101639.97;5035985;28;20700;-71
2023/05/21 01:19:05;;;;;;;5.45;4.20;;;;;;;13.62;73.61;101634.75;5047718;28;20041;-72
2023/05/21 01:21:56;;;;;;;5.60;4.97;;;;;;;13.62;74.03;101639.19;5045609;28;20048;-72
2023/05/21 01:24:49;;;;;;;5.20;4.15;;;;;;;13.63;74.21;101635.63;5042646;28;20120;-73
2023/05/21 01:27:34;;;;;;;7.18;4.70;;;;;;;13.56;74.17;101639.34;5038033;28;20113;-73
2023/05/21 01:30:23;;;;;;;5.53;4.60;;;;;;;13.54;74.36;101641.19;5035680;28;20045;-72
2023/05/21 01:33:40;;;;;;;6.93;4.65;;;;;;;13.48;74.53;101639.59;5044495;28;20104;-71
2023/05/21 01:36:36;;;;;;;7.30;4.32;;;;;;;13.45;74.56;101642.34;5042884;28;20038;-71
2023/05/21 01:39:32;;;;;;;6.72;4.93;;;;;;;13.42;74.90;101637.13;5037331;28;20049;-71
2023/05/21 01:42:22;;;;;;;5.93;4.95;;;;;;;13.34;74.85;101637.31;5038444;28;20141;-72
2023/05/21 01:45:08;;;;;;;5.53;4.53;;;;;;;13.27;75.31;101635.75;5040012;28;20045;-72
2023/05/21 01:47:55;;;;;;;6.05;4.60;;;;;;;13.23;75.70;101634.13;5038797;28;20045;-72
2023/05/21 01:50:45;;;;;;;5.95;4.72;;;;;;;13.16;75.87;101628.13;5029244;28;20049;-72
2023/05/21 01:53:30;;;;;;;7.97;5.10;;;;;;;13.11;76.23;101624.75;5058047;28;21039;-72
2023/05/21 01:56:16;;;;;;;6.15;4.55;;;;;;;13.07;76.66;101629.25;5038790;28;20112;-72
2023/05/21 01:59:01;;;;;;;7.22;5.07;;;;;;;13.01;76.81;101626.78;5027301;28;20046;-71
2023/05/21 02:01:47;;;;;;;8.35;5.28;;;;;;;12.97;77.26;101628.63;5037484;28;20042;-71
2023/05/21 02:04:32;;;;;;;6.13;5.07;;;;;;;12.91;77.24;101618.22;5039947;28;20069;-71
2023/05/21 02:07:18;;;;;;;6.55;4.95;;;;;;;12.88;77.47;101621.84;5042537;28;20056;-71
2023/05/21 02:10:05;;;;;;;9.43;4.97;;;;;;;12.81;77.65;101620.28;5048279;28;20041;-71
2023/05/21 02:12:50;;;;;;;5.78;4.95;;;;;;;12.78;77.53;101625.66;5049712;28;20512;-72
2023/05/21 02:15:35;;;;;;;8.18;5.00;;;;;;;12.78;78.13;101620.34;5047462;28;20053;-72
2023/05/21 02:18:21;;;;;;;5.57;4.90;;;;;;;12.77;78.49;101618.63;5031348;28;20085;-72
2023/05/21 02:21:11;;;;;;;8.27;4.85;;;;;;;12.76;78.73;101618.66;5052236;28;20049;-73
2023/05/21 02:23:57;;;;;;;7.15;4.85;;;;;;;12.73;78.94;101616.94;5032862;28;20514;-73
2023/05/21 02:26:42;;;;;;;6.00;4.70;;;;;;;12.71;78.84;101622.28;5041056;28;20195;-73
2023/05/21 02:29:28;;;;;;;5.82;4.80;;;;;;;12.66;79.28;101607.44;5040563;28;20120;-73
2023/05/21 02:32:13;;;;;;;7.95;5.53;;;;;;;12.67;79.31;101617.97;5041638;28;20319;-73
2023/05/21 02:35:03;;;;;;;7.40;5.30;;;;;;;12.64;79.38;101612.78;5033450;28;20111;-73
2023/05/21 02:37:49;;;;;;;6.72;4.55;;;;;;;12.64;79.67;101619.84;5033176;28;20050;-73
2023/05/21 02:40:35;;;;;;;5.82;4.78;;;;;;;12.63;80.11;101619.00;5052935;28;20045;-71
2023/05/21 02:43:20;;;;;;;7.22;5.00;;;;;;;12.62;79.70;101616.34;5038072;28;20053;-71
2023/05/21 02:46:06;;;;;;;6.50;5.00;;;;;;;12.61;80.76;101612.84;5045550;28;20140;-71
2023/05/21 02:48:53;;;;;;;6.38;5.18;;;;;;;12.62;80.66;101614.59;5041518;28;20125;-72
2023/05/21 02:51:38;;;;;;;8.82;5.43;;;;;;;12.61;80.64;101609.38;5055004;28;20516;-72
2023/05/21 02:54:23;;;;;;;10.07;5.43;;;;;;;12.59;80.79;101606.75;5040872;28;20053;-72
2023/05/21 02:57:09;;;;;;;6.65;5.43;;;;;;;12.57;81.00;101612.06;5030816;28;20519;-72
2023/05/21 02:59:54;;;;;;;7.20;5.78;;;;;;;12.57;81.00;101609.44;5045326;28;20537;-72
2023/05/21 03:02:42;;;;;;;6.45;5.13;;;;;;;12.59;81.19;101606.75;5041403;28;20045;-72
2023/05/21 03:05:27;;;;;;;5.88;5.28;;;;;;;12.57;81.54;101595.31;5045015;28;20057;-71
2023/05/21 03:08:15;;;;;;;6.80;4.80;;;;;;;12.58;81.58;101594.41;5057202;28;20097;-71
2023/05/21 03:11:02;;;;;;;7.20;5.03;;;;;;;12.57;81.41;101592.69;5051619;28;20046;-71
2023/05/21 03:13:47;;;;;;;8.15;5.47;;;;;;;12.59;81.95;101593.50;5041293;28;20059;-71
2023/05/21 03:16:33;;;;;;;6.00;5.35;;;;;;;12.57;81.88;101590.91;5044352;28;20464;-71
2023/05/21 03:19:19;;;;;;;6.55;5.38;;;;;;;12.55;81.98;101589.22;5044503;28;20042;-71
2023/05/21 03:22:05;;;;;;;7.20;5.43;;;;;;;12.57;82.12;101590.03;5043567;28;20089;-70
2023/05/21 03:24:53;;;;;;;7.88;6.30;;;;;;;12.55;82.18;101582.16;5045348;28;20607;-70
2023/05/21 03:27:39;;;;;;;6.85;6.10;;;;;;;12.57;82.01;101582.09;5044846;28;20152;-70
2023/05/21 03:30:37;;;;;;;6.88;5.75;;;;;;;12.56;82.29;101581.25;5048652;28;20710;-70
2023/05/21 03:33:57;;;;;;;8.73;6.03;;;;;;;12.56;82.36;101593.63;5059761;28;20042;-71
2023/05/21 03:36:47;;;;;;;8.38;6.07;;;;;;;12.54;82.42;101591.00;5035930;28;20065;-71
2023/05/21 03:39:35;;;;;;;7.18;5.40;;;;;;;12.52;82.41;101587.50;5035494;28;20962;-71
2023/05/21 03:42:20;;;;;;;6.70;5.95;;;;;;;12.52;82.27;101584.00;5044399;28;20482;-71
2023/05/21 03:45:10;;;;;;;8.82;5.72;;;;;;;12.56;82.65;101580.41;5058113;28;20046;-72
2023/05/21 03:48:14;;;;;;;7.43;6.18;;;;;;;12.54;82.49;101591.00;5044775;28;20054;-72
2023/05/21 03:51:00;;;;;;;7.20;5.93;;;;;;;12.53;82.77;101591.91;5034250;28;20045;-71
2023/05/21 03:53:45;;;;;;;9.55;5.95;;;;;;;12.55;82.63;101589.22;5035819;28;20481;-71
2023/05/21 03:56:31;;;;;;;7.55;5.82;;;;;;;12.54;82.80;101591.00;5044306;28;20514;-72
2023/05/21 03:59:17;;;;;;;9.07;6.13;;;;;;;12.54;82.94;101580.41;5058209;28;20153;-71
2023/05/21 04:02:03;;;;;;;8.98;6.35;;;;;;;12.59;82.87;101585.56;5043957;28;20103;-72
2023/05/21 04:04:50;;;;;;;7.18;6.10;;;;;;;12.61;83.00;101580.25;5046803;28;20072;-71
2023/05/21 04:07:37;;;;;;;7.75;6.13;;;;;;;12.62;82.85;101587.25;5043419;28;20121;-72
2023/05/21 04:10:22;;;;;;;8.15;6.00;;;;;;;12.64;82.67;101580.16;5057933;28;20062;-71
2023/05/21 04:13:07;;;;;;;8.70;6.13;;;;;;;12.66;82.97;101586.28;5045700;28;20085;-71
2023/05/21 04:15:53;;;;;;;7.97;5.70;;;;;;;12.68;82.83;101590.63;5036866;28;20059;-71
2023/05/21 04:18:40;;;;;;;6.88;5.57;;;;;;;12.70;82.78;101603.81;5037046;28;20046;-71
2023/05/21 04:21:31;;;;;;;7.20;5.50;;;;;;;12.76;82.75;101598.34;5031742;28;20602;-71
2023/05/21 04:24:16;;;;;;;7.00;5.40;;;;;;;12.80;82.58;101593.84;5044474;28;20494;-71
2023/05/21 04:27:12;;;;;;;;;;;;;;;12.83;82.52;101593.75;5057334;28;20045;-72
2023/05/21 04:29:58;;;;;;;7.75;5.53;;;;;;;12.89;82.46;101597.13;5043559;28;19925;-71
2023/05/21 04:32:44;;;;;;;7.18;5.32;;;;;;;12.98;82.18;101595.13;5052932;28;20132;-71
2023/05/21 04:35:30;;;;;;;6.65;5.20;;;;;;;12.99;81.65;101599.50;5040103;28;20046;-71
2023/05/21 04:38:18;;;;;;;6.25;5.57;;;;;;;13.06;82.04;101598.41;5046388;28;20053;-71
2023/05/21 04:41:05;;;;;;;6.75;5.22;;;;;;;13.07;81.82;101602.78;5037056;28;20073;-71
2023/05/21 04:43:53;;;;;;;7.03;5.40;;;;;;;13.11;81.65;101598.25;5039629;28;20045;-71
2023/05/21 04:46:44;;;;;;;7.60;5.38;;;;;;;13.14;81.92;101606.97;5042446;28;20057;-71
2023/05/21 04:49:30;;;;;;;8.98;5.63;;;;;;;13.19;81.62;101601.56;5041235;28;20101;-71
2023/05/21 04:52:17;;;;;;;7.65;5.45;;;;;;;13.22;81.32;101614.72;5047947;28;20272;-71
2023/05/21 04:55:03;;;;;;;6.18;5.25;;;;;;;13.25;81.29;101611.09;5035824;28;20038;-71
2023/05/21 04:57:48;;;;;;;8.35;5.80;;;;;;;13.26;81.42;101608.44;5048094;28;20479;-70
2023/05/21 05:00:36;;;;;;;8.93;5.75;;;;;;;13.30;81.41;101617.16;5050502;28;20502;-71
2023/05/21 05:03:22;;;;;;;8.95;5.30;;;;;;;13.35;81.12;101609.91;5060637;28;20136;-70
2023/05/21 05:06:08;;;;;;;6.95;5.65;;;;;;;13.41;81.08;101609.78;5043523;28;20537;-72
2023/05/21 05:08:54;;;;;;;8.57;5.40;;;;;;;13.45;81.00;101602.63;5044534;28;20053;-72
2023/05/21 05:11:40;;;;;;;8.63;5.53;;;;;;;13.50;80.64;101600.66;5041377;28;20049;-71
2023/05/21 05:14:26;;;;;;;8.27;5.63;;;;;;;13.53;80.73;101599.75;5037510;28;20050;-71
2023/05/21 05:17:14;;;;;;;7.13;4.88;;;;;;;13.60;79.97;101596.81;5059838;28;20527;-71
2023/05/21 05:20:00;;;;;;;6.10;5.30;;;;;;;13.63;80.15;101603.84;5044221;28;20889;-72
2023/05/21 05:22:46;;;;;;;7.63;5.70;;;;;;;13.62;80.06;101602.09;5040590;28;20049;-72
2023/05/21 05:25:32;;;;;;;7.55;5.53;;;;;;;13.65;79.82;101597.56;5043253;28;20524;-71
2023/05/21 05:28:17;;;;;;;6.50;5.20;;;;;;;13.69;79.81;101602.75;5044022;28;20591;-70
2023/05/21 05:31:03;;;;;;;7.18;5.32;;;;;;;13.75;79.78;101597.28;5030974;28;20672;-71
2023/05/21 05:33:49;;;;;;;7.55;4.88;;;;;;;13.86;79.45;101588.97;5047520;28;20045;-71
2023/05/21 05:36:35;;;;;;;7.45;4.97;;;;;;;13.87;78.90;101588.94;5043491;28;20046;-71
2023/05/21 05:39:21;;;;;;;8.15;5.47;;;;;;;13.87;79.08;101586.28;5031337;28;20057;-71
2023/05/21 05:42:07;;;;;;;6.35;5.00;;;;;;;13.91;79.12;101592.34;5033002;28;20057;-71
2023/05/21 05:44:53;;;;;;;6.57;4.93;;;;;;;13.95;78.92;101586.91;5045332;28;20045;-71
2023/05/21 05:47:38;;;;;;;7.45;5.43;;;;;;;13.99;78.76;101585.00;5043657;28;20867;-71
2023/05/21 05:50:23;;;;;;;8.50;4.97;;;;;;;14.03;78.72;101584.00;5044855;28;20564;-71
2023/05/21 05:53:12;;;;;;;8.00;5.20;;;;;;;14.16;78.35;101591.53;5048615;28;20492;-72
2023/05/21 05:55:58;;;;;;;8.00;5.28;;;;;;;14.21;78.03;101597.56;5042336;28;20703;-71
2023/05/21 05:58:44;;;;;;;7.65;5.50;;;;;;;14.27;77.80;101584.97;5053322;28;20037;-72
2023/05/21 06:01:31;;;;;;;6.55;5.13;;;;;;;14.37;77.72;101589.97;5057931;28;20573;-71
2023/05/21 06:04:16;;;;;;;7.20;5.07;;;;;;;14.42;77.15;101586.22;5045396;28;20041;-72
2023/05/21 06:07:02;;;;;;;6.35;5.20;;;;;;;14.56;76.57;101587.50;5050072;28;20111;-72
2023/05/21 06:09:47;;;;;;;7.57;5.20;;;;;;;14.62;76.42;101594.38;5043713;28;20497;-71
2023/05/21 06:12:33;;;;;;;6.93;4.88;;;;;;;14.71;75.99;101591.44;5044165;28;20085;-76
2023/05/21 06:15:19;;;;;;;6.60;5.10;;;;;;;14.77;75.79;101593.00;5044148;28;20049;-72
2023/05/21 06:18:04;;;;;;;6.85;5.10;;;;;;;14.85;75.71;101597.13;5043496;28;20049;-72
2023/05/21 06:20:50;;;;;;;8.68;5.22;;;;;;;15.00;75.15;101597.50;5030877;28;20042;-72
2023/05/21 06:23:37;;;;;;;6.47;5.07;;;;;;;15.09;74.56;101602.47;5045964;28;20115;-72
2023/05/21 06:26:26;;;;;;;9.20;5.18;;;;;;;15.25;74.12;101600.09;5047500;28;20045;-71
2023/05/21 06:29:11;;;;;;;6.72;5.40;;;;;;;15.32;73.54;101595.41;5043078;28;20058;-71
2023/05/21 06:32:00;;;;;;;6.97;5.00;;;;;;;15.37;73.51;101588.13;5057511;28;20052;-70
2023/05/21 06:34:46;;;;;;;7.90;6.03;;;;;;;15.41;73.57;101595.06;5044769;28;20053;-71
2023/05/21 06:37:31;;;;;;;6.72;5.00;;;;;;;15.50;72.97;101593.84;5057267;28;20576;-70
2023/05/21 06:40:17;;;;;;;7.18;5.38;;;;;;;15.55;73.09;101593.66;5037359;28;20168;-71
2023/05/21 06:43:04;;;;;;;9.77;5.60;;;;;;;15.62;72.09;101596.00;5040001;28;20057;-71
2023/05/21 06:46:24;;;;;;;5.85;5.22;;;;;;;15.68;72.38;101603.72;5042019;28;20037;-71
2023/05/21 06:49:12;;;;;;;9.25;5.80;;;;;;;15.64;72.80;101586.19;5049727;28;20613;-71
2023/05/21 06:52:00;;;;;;;6.70;5.65;;;;;;;15.72;72.80;101587.69;5044333;28;20045;-71
2023/05/21 06:54:45;;;;;;;8.00;5.78;;;;;;;15.80;72.45;101581.13;5046327;28;20053;-70
2023/05/21 06:57:32;;;;;;;8.25;5.88;;;;;;;15.93;72.26;101583.28;5045945;28;20053;-71
2023/05/21 07:00:17;;;;;;;6.90;5.60;;;;;;;16.01;71.50;101578.56;5045543;28;20045;-71
2023/05/21 07:03:03;;;;;;;7.60;5.47;;;;;;;16.05;71.04;101587.25;5045788;28;20120;-71
2023/05/21 07:05:49;;;;;;;6.22;5.35;;;;;;;16.05;71.49;101585.47;5039788;28;20053;-71
2023/05/21 07:08:34;;;;;;;8.15;5.65;;;;;;;16.12;70.93;101586.94;5054684;28;20061;-71
2023/05/21 07:11:20;;;;;;;6.78;5.22;;;;;;;16.10;71.10;101578.16;5044869;28;20536;-71
2023/05/21 07:14:07;;;;;;;8.50;5.97;;;;;;;16.17;71.04;101585.88;5044875;28;20049;-71
2023/05/21 07:16:54;;;;;;;6.32;5.32;;;;;;;16.27;70.71;101584.56;5059446;28;20096;-71
2023/05/21 07:19:39;;;;;;;7.57;5.65;;;;;;;16.37;70.16;101585.91;5040800;28;20034;-71
2023/05/21 07:22:26;;;;;;;6.55;5.70;;;;;;;16.36;70.13;101586.81;5042675;28;20559;-71
2023/05/21 07:25:12;;;;;;;8.25;6.00;;;;;;;16.47;70.10;101578.41;5038823;28;20595;-70
2023/05/21 07:27:58;;;;;;;6.72;5.53;;;;;;;16.62;69.78;101571.53;5040756;28;20057;-70
2023/05/21 07:30:43;;;;;;;7.53;6.13;;;;;;;16.72;69.29;101567.53;5053523;28;20053;-70
2023/05/21 07:33:32;;;;;;;10.52;5.85;;;;;;;16.85;69.10;101557.19;5039069;28;20054;-72
2023/05/21 07:36:18;;;;;;;7.60;5.78;;;;;;;16.89;68.83;101560.56;5044240;28;20089;-71
2023/05/21 07:39:04;;;;;;;7.63;5.70;;;;;;;16.92;69.15;101566.63;5042472;28;20788;-69
2023/05/21 07:41:49;;;;;;;10.00;5.80;;;;;;;17.08;68.28;101564.16;5040637;28;20053;-69
2023/05/21 07:44:38;;;;;;;9.70;6.22;;;;;;;17.13;67.89;101568.41;5040538;28;20053;-71
2023/05/21 07:47:24;;;;;;;8.73;6.25;;;;;;;17.24;67.93;101560.78;5032499;28;20086;-70
2023/05/21 07:50:10;;;;;;;10.48;6.00;;;;;;;17.30;67.57;101565.81;5037447;28;20037;-70
2023/05/21 07:52:55;;;;;;;8.35;5.93;;;;;;;17.42;67.04;101567.03;5029220;28;20112;-72
2023/05/21 07:55:46;;;;;;;8.32;5.93;;;;;;;17.53;66.42;101566.53;5037993;28;20057;-69
2023/05/21 07:58:35;;;;;;;7.38;5.60;;;;;;;17.66;66.27;101567.63;5037667;28;20053;-69
2023/05/21 08:01:21;;;;;;;7.88;6.05;;;;;;;17.63;65.96;101561.59;5039887;28;20135;-70
2023/05/21 08:04:08;;;;;;;8.30;6.30;;;;;;;17.73;65.50;101564.69;5050476;28;20576;-70
2023/05/21 08:06:56;;;;;;;7.95;6.05;;;;;;;17.80;65.73;101553.66;5041638;28;20042;-69
2023/05/21 08:09:41;;;;;;;7.43;5.60;;;;;;;17.93;65.72;101567.22;5042652;28;20535;-70
2023/05/21 08:12:28;;;;;;;8.55;6.32;;;;;;;18.12;64.35;101563.66;5040095;28;20567;-70
2023/05/21 08:15:13;;;;;;;10.20;6.30;;;;;;;18.23;64.61;101565.78;5042418;28;20088;-74
2023/05/21 08:19:29;;;;;;;10.85;6.10;;;;;;;18.33;64.13;101564.38;5159732;27;20364;-68
2023/05/21 08:22:15;;;;;;;11.55;6.78;;;;;;;18.49;63.74;101566.25;5140094;27;20055;-69
2023/05/21 08:25:03;;;;;;;9.15;6.63;;;;;;;18.68;63.34;101567.00;5124080;27;20051;-69
2023/05/21 08:27:48;;;;;;;8.43;6.20;;;;;;;18.70;63.20;101562.44;5127944;27;20102;-69
2023/05/21 08:30:37;;;;;;;8.00;5.93;;;;;;;18.86;64.21;101561.63;5136335;27;20895;-70
2023/05/21 08:33:22;;;;;;;9.40;6.95;;;;;;;19.15;64.38;101560.06;5139324;27;20702;-69
2023/05/21 08:36:07;;;;;;;8.57;6.18;;;;;;;19.39;62.31;101559.63;5123704;27;20055;-69
2023/05/21 08:39:04;;;;;;;9.32;6.50;;;;;;;19.49;61.30;101565.34;5104235;27;20720;-70
2023/05/21 08:42:08;;;;;;;9.82;6.68;;;;;;;19.51;61.26;101556.25;5106695;27;20083;-68
2023/05/21 08:44:59;;;;;;;9.70;5.82;;;;;;;19.48;62.08;101556.47;5104059;27;20055;-69
2023/05/21 08:47:45;;;;;;;7.60;6.10;;;;;;;19.58;60.82;101551.44;5101788;27;20504;-70
2023/05/21 08:50:33;;;;;;;9.68;6.28;;;;;;;19.56;60.51;101553.34;5104177;27;20056;-70
2023/05/21 08:53:26;;;;;;;9.18;6.22;;;;;;;19.57;61.09;101541.69;5116403;27;20047;-69
2023/05/21 08:56:17;;;;;;;8.85;6.15;;;;;;;19.64;60.41;101548.41;5121184;27;20055;-70
2023/05/21 08:59:10;;;;;;;9.38;6.78;;;;;;;19.59;61.01;101544.25;5088409;27;20539;-70
2023/05/21 09:01:59;;;;;;;8.38;6.45;;;;;;;19.61;61.13;101545.03;5098852;27;20146;-70
2023/05/21 09:04:56;;;;;;;9.27;6.60;;;;;;;19.58;60.96;101538.06;5098215;27;20044;-70
2023/05/21 09:08:06;;;;;;;10.63;6.88;;;;;;;19.69;60.52;101535.63;5121214;27;20142;-70
2023/05/21 09:11:04;;;;;;;10.02;7.10;;;;;;;19.68;60.80;101541.09;5103347;27;20059;-70
2023/05/21 09:13:59;;;;;;;9.93;7.10;;;;;;;19.94;60.52;101539.56;5107535;27;20474;-70
2023/05/21 09:16:55;;;;;;;8.25;6.80;;;;;;;20.02;60.60;101528.41;5108566;27;20056;-69
2023/05/21 09:20:14;;;;;;;10.02;7.50;;;;;;;20.35;59.12;101535.38;5107057;27;20431;-70
2023/05/21 09:23:15;;;;;;;9.90;7.45;;;;;;;20.40;59.20;101530.59;5104233;27;20052;-71
2023/05/21 09:26:11;;;;;;;;;;;;;;;20.40;59.01;101527.91;5103733;27;20056;-69
2023/05/21 09:28:59;;;;;;;11.30;7.85;;;;;;;20.39;60.63;101528.91;5099903;27;19924;-70
2023/05/21 09:31:45;;;;;;;12.57;7.93;;;;;;;20.43;59.85;101525.06;5088342;27;20040;-71
2023/05/21 09:34:35;;;;;;;11.18;7.95;;;;;;;20.36;59.99;101521.03;5107395;28;20060;-71
2023/05/21 09:37:21;;;;;;;11.23;8.07;;;;;;;20.40;59.58;101513.69;5088136;28;20056;-71
2023/05/21 09:40:22;;;;;;;10.25;7.78;;;;;;;20.57;59.34;101510.81;5091711;28;20063;-70
2023/05/21 09:43:14;;;;;;;11.13;8.00;;;;;;;20.64;58.82;101514.84;5091086;28;20083;-71
2023/05/21 09:46:00;;;;;;;10.93;7.43;;;;;;;20.71;59.18;101511.78;5092047;28;20475;-70
2023/05/21 09:48:49;;;;;;;11.70;8.00;;;;;;;20.85;59.19;101513.63;5085945;28;20056;-71
2023/05/21 09:51:38;;;;;;;12.77;9.25;;;;;;;21.02;58.15;101507.19;5102994;28;20189;-70
2023/05/21 09:54:29;;;;;;;11.50;8.40;;;;;;;21.21;58.12;101507.72;5104554;27;20051;-70
2023/05/21 09:57:15;;;;;;;11.73;8.43;;;;;;;21.29;57.81;101498.31;5104658;28;20056;-70
2023/05/21 10:00:00;;;;;;;11.10;8.43;;;;;;;21.54;56.78;101495.75;5107673;28;20114;-70
2023/05/21 10:02:48;;;;;;;12.18;8.90;;;;;;;21.65;56.39;101507.63;5104048;28;20645;-71
2023/05/21 10:05:35;;;;;;;11.48;8.93;;;;;;;21.69;56.45;101498.38;5101366;27;20056;-71
2023/05/21 10:08:25;;;;;;;13.55;9.45;;;;;;;21.62;56.70;101491.72;5108975;28;20052;-70
2023/05/21 10:11:12;;;;;;;12.75;9.23;;;;;;;21.60;56.31;101486.47;5107785;28;20163;-71
2023/05/21 10:14:03;;;;;;;15.82;10.98;;;;;;;21.61;56.15;101488.19;5106542;28;20048;-70
2023/05/21 10:16:53;;;;;;;11.68;10.02;;;;;;;21.62;56.25;101489.03;5116909;28;20071;-70
2023/05/21 10:19:40;;;;;;;13.07;10.25;;;;;;;21.75;56.50;101486.38;5121605;28;20107;-70
2023/05/21 10:22:27;;;;;;;14.57;10.02;;;;;;;21.95;56.10;101482.34;5111930;28;20507;-70
2023/05/21 10:25:12;;;;;;;13.02;9.70;;;;;;;22.00;55.91;101477.50;5093405;28;20048;-70
2023/05/21 10:27:58;;;;;;;14.32;9.13;;;;;;;22.18;56.13;101478.91;5107626;28;20045;-70
2023/05/21 10:30:45;;;;;;;15.43;9.90;;;;;;;22.41;54.35;101479.16;5109997;28;20731;-70
2023/05/21 10:33:32;;;;;;;13.50;10.55;;;;;;;22.53;53.75;101484.63;5092320;28;20052;-70
2023/05/21 10:36:19;;;;;;;12.75;9.90;;;;;;;22.59;53.52;101487.75;5103949;28;20198;-70
2023/05/21 10:39:08;;;;;;;14.05;10.10;;;;;;;22.73;53.01;101480.53;5107042;28;20555;-70
2023/05/21 10:42:12;;;;;;;14.10;9.90;;;;;;;22.82;52.88;101473.63;5105581;28;20056;-70
2023/05/21 10:45:17;;;;;;;13.88;10.00;;;;;;;22.83;52.19;101475.34;5106078;28;20113;-70
2023/05/21 10:48:34;;;;;;;15.02;11.07;;;;;;;22.75;51.79;101483.97;5104134;28;20048;-70
2023/05/21 10:51:27;;;;;;;14.70;10.75;;;;;;;22.53;52.38;101481.97;5087546;28;20090;-69
2023/05/21 10:54:49;;;;;;;13.43;10.13;;;;;;;22.43;53.05;101477.25;5104653;28;20070;-70
2023/05/21 10:58:18;;;;;;;14.57;11.52;;;;;;;22.40;53.48;101473.88;5097794;28;20060;-70
2023/05/21 11:01:06;;;;;;;12.05;9.52;;;;;;;22.57;52.95;101470.03;5086295;28;20754;-70
2023/05/21 11:03:51;;;;;;;12.55;9.90;;;;;;;22.70;52.81;101462.78;5085124;28;20052;-70
2023/05/21 11:06:37;;;;;;;12.07;10.07;;;;;;;22.92;52.37;101459.44;5086612;28;20792;-70
2023/05/21 11:09:22;;;;;;;15.70;11.38;;;;;;;22.89;52.43;101459.63;5087001;28;20099;-70
2023/05/21 11:12:08;;;;;;;12.45;9.90;;;;;;;22.98;52.41;101455.44;5086498;28;20052;-70
2023/05/21 11:14:57;;;;;;;14.77;10.23;;;;;;;23.18;51.86;101459.31;5087422;28;20103;-70
2023/05/21 11:17:43;;;;;;;11.60;9.32;;;;;;;23.11;51.97;101456.22;5087482;28;20056;-70
2023/05/21 11:20:33;;;;;;;12.10;9.25;;;;;;;23.21;51.93;101453.75;5087056;28;20060;-70
2023/05/21 11:23:22;;;;;;;12.70;10.07;;;;;;;23.30;51.26;101462.09;5088762;28;20053;-70
2023/05/21 11:26:08;;;;;;;12.90;9.32;;;;;;;23.30;51.72;101448.66;5088260;28;20056;-70
2023/05/21 11:29:07;;;;;;;13.32;10.40;;;;;;;23.50;50.66;101447.16;5086633;28;20048;-70
2023/05/21 11:32:04;;;;;;;14.35;10.07;;;;;;;23.41;50.99;101437.94;5087750;28;20064;-70
2023/05/21 11:34:50;;;;;;;15.82;10.30;;;;;;;23.41;50.71;101430.72;5086424;28;20061;-70
2023/05/21 11:37:40;;;;;;;13.63;9.65;;;;;;;23.60;50.42;101439.22;5098645;28;20807;-70
2023/05/21 11:40:27;;;;;;;14.90;9.57;;;;;;;23.64;50.03;101432.66;5108287;28;20059;-71
2023/05/21 11:43:12;;;;;;;12.30;9.35;;;;;;;23.66;50.26;101434.25;5107406;28;20193;-70
2023/05/21 11:45:58;;;;;;;13.45;10.25;;;;;;;23.64;50.42;101417.34;5107712;28;20143;-70
2023/05/21 11:48:43;;;;;;;12.82;9.65;;;;;;;23.69;50.70;101419.69;5107844;28;20052;-70
2023/05/21 11:51:29;;;;;;;15.18;9.95;;;;;;;23.84;50.61;101415.81;5106600;28;20048;-71
2023/05/21 11:54:16;;;;;;;13.10;9.50;;;;;;;24.07;49.92;101409.63;5107380;28;20052;-70
2023/05/21 11:57:06;;;;;;;13.43;10.15;;;;;;;24.03;50.96;101417.94;5102898;28;20052;-70
2023/05/21 11:59:52;;;;;;;14.85;9.38;;;;;;;24.18;50.31;101412.34;5106694;28;20082;-70
2023/05/21 12:02:37;;;;;;;14.55;9.63;;;;;;;24.33;49.19;101407.56;5107993;28;20056;-70
2023/05/21 12:05:23;;;;;;;12.20;9.52;;;;;;;24.27;49.48;101414.31;5107487;28;20051;-70
2023/05/21 12:08:09;;;;;;;12.48;9.27;;;;;;;24.27;49.42;101402.66;5105322;28;20048;-70
2023/05/21 12:10:59;;;;;;;10.90;8.98;;;;;;;24.44;49.06;101417.47;5107205;28;20891;-70
2023/05/21 12:13:44;;;;;;;14.68;10.40;;;;;;;24.45;49.17;101413.81;5107369;28;20060;-70
2023/05/21 12:16:31;;;;;;;13.50;9.50;;;;;;;24.48;50.12;101416.25;5106712;28;20102;-70
2023/05/21 12:19:17;;;;;;;13.65;9.73;;;;;;;24.56;50.57;101397.63;5107877;28;20785;-70
2023/05/21 12:22:04;;;;;;;10.98;9.07;;;;;;;24.80;49.48;101410.13;5093866;28;20413;-70
2023/05/21 12:24:52;;;;;;;11.93;8.43;;;;;;;24.84;49.42;101398.09;5086908;28;20150;-70
2023/05/21 12:27:38;;;;;;;14.15;9.57;;;;;;;24.97;48.19;101392.56;5087179;28;20052;-70
2023/05/21 12:30:25;;;;;;;13.93;8.73;;;;;;;24.98;48.35;101394.25;5100052;28;20048;-70
2023/05/21 12:33:10;;;;;;;13.10;10.52;;;;;;;24.96;47.76;101382.75;5107628;28;20052;-70
2023/05/21 12:35:56;;;;;;;13.07;9.60;;;;;;;24.91;47.99;101385.84;5106245;28;20087;-70
2023/05/21 12:38:44;;;;;;;11.40;8.82;;;;;;;24.85;48.87;101382.78;5107287;28;20048;-71
2023/05/21 12:41:30;;;;;;;11.60;8.88;;;;;;;24.94;49.28;101380.16;5107368;28;20044;-70
2023/05/21 12:44:15;;;;;;;11.52;9.00;;;;;;;25.17;47.95;101388.19;5106778;28;20056;-70
2023/05/21 12:47:02;;;;;;;11.30;9.02;;;;;;;25.17;48.83;101379.25;5107786;28;20056;-70
2023/05/21 12:49:48;;;;;;;15.15;9.73;;;;;;;25.30;47.84;101377.19;5106975;28;20059;-70
2023/05/21 12:52:33;;;;;;;11.85;8.90;;;;;;;25.28;47.44;101373.81;5106920;28;20052;-70
2023/05/21 12:55:24;;;;;;;11.98;9.07;;;;;;;25.32;47.14;101367.13;5107096;28;20060;-70
2023/05/21 12:58:13;;;;;;;10.75;8.77;;;;;;;25.27;47.38;101367.53;5106936;28;20040;-70
2023/05/21 13:00:58;;;;;;;12.52;9.82;;;;;;;25.24;47.62;101367.78;5107234;28;20059;-70